sensor_id;sensor_type;location;lat;lon;timestamp;P1;durP1;ratioP1;P2;durP2;ratioP2
80213;SDS011;69531;37.974;23.708;2023-04-24T00:00:03;19.40;;;12.10;;
80213;SDS011;69531;37.974;23.708;2023-04-24T00:02:39;22.48;;;11.32;;
80213;SDS011;69531;37.974;23.708;2023-04-24T00:05:05;16.63;;;11.00;;
80213;SDS011;69531;37.974;23.708;2023-04-24T00:07:32;20.27;;;11.40;;
80213;SDS011;69531;37.974;23.708;2023-04-24T00:09:57;18.15;;;11.88;;
80213;SDS011;69531;37.974;23.708;2023-04-24T00:12:23;18.08;;;11.20;;
80213;SDS011;69531;37.974;23.708;2023-04-24T00:14:50;21.27;;;12.05;;
80213;SDS011;69531;37.974;23.708;2023-04-24T00:17:16;21.55;;;11.88;;
80213;SDS011;69531;37.974;23.708;2023-04-24T00:19:45;21.15;;;11.38;;
80213;SDS011;69531;37.974;23.708;2023-04-24T00:22:11;20.23;;;11.57;;
80213;SDS011;69531;37.974;23.708;2023-04-24T00:24:38;19.23;;;11.75;;
80213;SDS011;69531;37.974;23.708;2023-04-24T00:27:04;19.30;;;10.45;;
80213;SDS011;69531;37.974;23.708;2023-04-24T00:29:30;18.70;;;11.57;;
80213;SDS011;69531;37.974;23.708;2023-04-24T00:31:56;20.40;;;11.23;;
80213;SDS011;69531;37.974;23.708;2023-04-24T00:34:22;21.90;;;11.10;;
80213;SDS011;69531;37.974;23.708;2023-04-24T00:36:47;21.35;;;11.50;;
80213;SDS011;69531;37.974;23.708;2023-04-24T00:39:17;18.65;;;11.80;;
80213;SDS011;69531;37.974;23.708;2023-04-24T00:41:46;14.80;;;10.70;;
80213;SDS011;69531;37.974;23.708;2023-04-24T00:44:13;19.70;;;11.77;;
80213;SDS011;69531;37.974;23.708;2023-04-24T00:46:39;18.25;;;11.02;;
80213;SDS011;69531;37.974;23.708;2023-04-24T00:49:05;18.60;;;11.32;;
80213;SDS011;69531;37.974;23.708;2023-04-24T00:51:31;21.17;;;11.63;;
80213;SDS011;69531;37.974;23.708;2023-04-24T00:53:58;17.95;;;11.25;;
80213;SDS011;69531;37.974;23.708;2023-04-24T00:56:25;19.10;;;10.65;;
80213;SDS011;69531;37.974;23.708;2023-04-24T00:58:51;17.90;;;10.80;;
80213;SDS011;69531;37.974;23.708;2023-04-24T01:01:21;19.75;;;11.07;;
80213;SDS011;69531;37.974;23.708;2023-04-24T01:03:47;16.47;;;11.03;;
80213;SDS011;69531;37.974;23.708;2023-04-24T01:06:15;18.83;;;10.85;;
80213;SDS011;69531;37.974;23.708;2023-04-24T01:08:43;16.98;;;10.57;;
80213;SDS011;69531;37.974;23.708;2023-04-24T01:11:11;17.98;;;11.60;;
80213;SDS011;69531;37.974;23.708;2023-04-24T01:13:37;16.55;;;10.80;;
80213;SDS011;69531;37.974;23.708;2023-04-24T01:16:03;20.80;;;11.27;;
80213;SDS011;69531;37.974;23.708;2023-04-24T01:18:28;21.88;;;11.57;;
80213;SDS011;69531;37.974;23.708;2023-04-24T01:20:56;19.85;;;10.63;;
80213;SDS011;69531;37.974;23.708;2023-04-24T01:23:23;19.75;;;11.23;;
80213;SDS011;69531;37.974;23.708;2023-04-24T01:25:50;15.52;;;10.55;;
80213;SDS011;69531;37.974;23.708;2023-04-24T01:28:16;18.33;;;10.82;;
80213;SDS011;69531;37.974;23.708;2023-04-24T01:30:43;18.83;;;10.27;;
80213;SDS011;69531;37.974;23.708;2023-04-24T01:33:09;14.07;;;10.25;;
80213;SDS011;69531;37.974;23.708;2023-04-24T01:35:35;18.45;;;10.93;;
80213;SDS011;69531;37.974;23.708;2023-04-24T01:38:02;15.35;;;10.73;;
80213;SDS011;69531;37.974;23.708;2023-04-24T01:40:28;16.25;;;10.85;;
80213;SDS011;69531;37.974;23.708;2023-04-24T01:42:54;19.52;;;11.45;;
80213;SDS011;69531;37.974;23.708;2023-04-24T01:45:20;17.27;;;11.15;;
80213;SDS011;69531;37.974;23.708;2023-04-24T01:47:45;18.73;;;11.68;;
80213;SDS011;69531;37.974;23.708;2023-04-24T01:50:12;18.52;;;11.23;;
80213;SDS011;69531;37.974;23.708;2023-04-24T01:52:38;19.42;;;11.25;;
80213;SDS011;69531;37.974;23.708;2023-04-24T01:55:04;21.38;;;10.93;;
80213;SDS011;69531;37.974;23.708;2023-04-24T01:57:31;22.38;;;12.63;;
80213;SDS011;69531;37.974;23.708;2023-04-24T01:59:57;20.20;;;11.23;;
80213;SDS011;69531;37.974;23.708;2023-04-24T02:02:23;17.80;;;10.90;;
80213;SDS011;69531;37.974;23.708;2023-04-24T02:04:50;20.58;;;11.20;;
80213;SDS011;69531;37.974;23.708;2023-04-24T02:07:16;26.27;;;12.27;;
80213;SDS011;69531;37.974;23.708;2023-04-24T02:09:42;19.20;;;11.82;;
80213;SDS011;69531;37.974;23.708;2023-04-24T02:12:07;22.92;;;12.52;;
80213;SDS011;69531;37.974;23.708;2023-04-24T02:14:33;18.52;;;10.73;;
80213;SDS011;69531;37.974;23.708;2023-04-24T02:16:59;20.52;;;11.95;;
80213;SDS011;69531;37.974;23.708;2023-04-24T02:19:25;22.02;;;11.52;;
80213;SDS011;69531;37.974;23.708;2023-04-24T02:21:51;16.92;;;10.80;;
80213;SDS011;69531;37.974;23.708;2023-04-24T02:24:17;16.33;;;11.02;;
80213;SDS011;69531;37.974;23.708;2023-04-24T02:26:43;18.77;;;11.75;;
80213;SDS011;69531;37.974;23.708;2023-04-24T02:29:08;19.45;;;11.73;;
80213;SDS011;69531;37.974;23.708;2023-04-24T02:31:34;17.52;;;10.55;;
80213;SDS011;69531;37.974;23.708;2023-04-24T02:34:00;16.65;;;11.10;;
80213;SDS011;69531;37.974;23.708;2023-04-24T02:36:26;18.20;;;10.48;;
80213;SDS011;69531;37.974;23.708;2023-04-24T02:38:51;17.92;;;11.57;;
80213;SDS011;69531;37.974;23.708;2023-04-24T02:41:17;18.35;;;11.77;;
80213;SDS011;69531;37.974;23.708;2023-04-24T02:43:43;19.75;;;11.18;;
80213;SDS011;69531;37.974;23.708;2023-04-24T02:46:08;21.02;;;11.02;;
80213;SDS011;69531;37.974;23.708;2023-04-24T02:48:34;17.35;;;11.70;;
80213;SDS011;69531;37.974;23.708;2023-04-24T02:51:00;21.55;;;11.43;;
80213;SDS011;69531;37.974;23.708;2023-04-24T02:53:26;16.85;;;11.38;;
80213;SDS011;69531;37.974;23.708;2023-04-24T02:55:51;20.45;;;12.05;;
80213;SDS011;69531;37.974;23.708;2023-04-24T02:58:17;23.52;;;11.68;;
80213;SDS011;69531;37.974;23.708;2023-04-24T03:00:45;19.35;;;11.65;;
80213;SDS011;69531;37.974;23.708;2023-04-24T03:03:11;16.92;;;10.90;;
80213;SDS011;69531;37.974;23.708;2023-04-24T03:05:37;20.20;;;11.50;;
80213;SDS011;69531;37.974;23.708;2023-04-24T03:08:03;19.20;;;11.23;;
80213;SDS011;69531;37.974;23.708;2023-04-24T03:10:29;17.42;;;11.50;;
80213;SDS011;69531;37.974;23.708;2023-04-24T03:12:55;15.77;;;11.00;;
80213;SDS011;69531;37.974;23.708;2023-04-24T03:15:21;17.10;;;10.90;;
80213;SDS011;69531;37.974;23.708;2023-04-24T03:17:47;19.65;;;11.13;;
80213;SDS011;69531;37.974;23.708;2023-04-24T03:20:13;21.85;;;11.82;;
80213;SDS011;69531;37.974;23.708;2023-04-24T03:22:39;22.45;;;11.07;;
80213;SDS011;69531;37.974;23.708;2023-04-24T03:25:05;22.15;;;11.70;;
80213;SDS011;69531;37.974;23.708;2023-04-24T03:27:33;16.02;;;11.18;;
80213;SDS011;69531;37.974;23.708;2023-04-24T03:29:58;20.58;;;11.93;;
80213;SDS011;69531;37.974;23.708;2023-04-24T03:32:25;25.90;;;11.95;;
80213;SDS011;69531;37.974;23.708;2023-04-24T03:34:51;16.92;;;11.70;;
80213;SDS011;69531;37.974;23.708;2023-04-24T03:37:17;22.35;;;10.32;;
80213;SDS011;69531;37.974;23.708;2023-04-24T03:39:42;24.92;;;11.40;;
80213;SDS011;69531;37.974;23.708;2023-04-24T03:42:08;22.02;;;11.52;;
80213;SDS011;69531;37.974;23.708;2023-04-24T03:44:35;21.40;;;10.40;;
80213;SDS011;69531;37.974;23.708;2023-04-24T03:47:01;22.85;;;11.13;;
80213;SDS011;69531;37.974;23.708;2023-04-24T03:49:26;18.63;;;10.48;;
80213;SDS011;69531;37.974;23.708;2023-04-24T03:51:52;17.27;;;10.02;;
80213;SDS011;69531;37.974;23.708;2023-04-24T03:54:18;20.55;;;10.75;;
80213;SDS011;69531;37.974;23.708;2023-04-24T03:56:44;18.38;;;10.30;;
80213;SDS011;69531;37.974;23.708;2023-04-24T03:59:10;24.60;;;10.40;;
80213;SDS011;69531;37.974;23.708;2023-04-24T04:01:36;17.25;;;10.02;;
80213;SDS011;69531;37.974;23.708;2023-04-24T04:04:08;18.35;;;9.48;;
80213;SDS011;69531;37.974;23.708;2023-04-24T04:06:34;19.45;;;10.00;;
80213;SDS011;69531;37.974;23.708;2023-04-24T04:09:01;16.83;;;9.82;;
80213;SDS011;69531;37.974;23.708;2023-04-24T04:11:28;18.30;;;10.10;;
80213;SDS011;69531;37.974;23.708;2023-04-24T04:13:54;16.25;;;10.02;;
80213;SDS011;69531;37.974;23.708;2023-04-24T04:16:21;19.65;;;10.45;;
80213;SDS011;69531;37.974;23.708;2023-04-24T04:18:47;17.38;;;10.18;;
80213;SDS011;69531;37.974;23.708;2023-04-24T04:21:13;22.90;;;11.05;;
80213;SDS011;69531;37.974;23.708;2023-04-24T04:23:39;23.38;;;10.43;;
80213;SDS011;69531;37.974;23.708;2023-04-24T04:26:05;24.17;;;11.25;;
80213;SDS011;69531;37.974;23.708;2023-04-24T04:28:31;18.85;;;10.07;;
80213;SDS011;69531;37.974;23.708;2023-04-24T04:30:57;21.25;;;11.52;;
80213;SDS011;69531;37.974;23.708;2023-04-24T04:33:23;19.27;;;10.63;;
80213;SDS011;69531;37.974;23.708;2023-04-24T04:35:50;19.30;;;10.23;;
80213;SDS011;69531;37.974;23.708;2023-04-24T04:38:21;18.85;;;10.68;;
80213;SDS011;69531;37.974;23.708;2023-04-24T04:40:47;17.38;;;10.88;;
80213;SDS011;69531;37.974;23.708;2023-04-24T04:43:13;19.13;;;10.23;;
80213;SDS011;69531;37.974;23.708;2023-04-24T04:45:40;22.23;;;10.75;;
80213;SDS011;69531;37.974;23.708;2023-04-24T04:48:07;21.58;;;11.07;;
80213;SDS011;69531;37.974;23.708;2023-04-24T04:50:34;22.48;;;10.57;;
80213;SDS011;69531;37.974;23.708;2023-04-24T04:53:00;25.20;;;11.00;;
80213;SDS011;69531;37.974;23.708;2023-04-24T04:55:26;22.98;;;10.90;;
80213;SDS011;69531;37.974;23.708;2023-04-24T04:57:52;19.35;;;10.70;;
80213;SDS011;69531;37.974;23.708;2023-04-24T05:00:18;21.73;;;11.40;;
80213;SDS011;69531;37.974;23.708;2023-04-24T05:02:44;18.90;;;10.35;;
80213;SDS011;69531;37.974;23.708;2023-04-24T05:05:10;20.23;;;10.95;;
80213;SDS011;69531;37.974;23.708;2023-04-24T05:07:36;19.80;;;10.45;;
80213;SDS011;69531;37.974;23.708;2023-04-24T05:10:02;21.65;;;11.07;;
80213;SDS011;69531;37.974;23.708;2023-04-24T05:12:28;19.23;;;10.38;;
80213;SDS011;69531;37.974;23.708;2023-04-24T05:14:54;22.15;;;11.10;;
80213;SDS011;69531;37.974;23.708;2023-04-24T05:17:19;20.55;;;10.98;;
80213;SDS011;69531;37.974;23.708;2023-04-24T05:19:45;15.15;;;9.48;;
80213;SDS011;69531;37.974;23.708;2023-04-24T05:22:11;18.85;;;9.20;;
80213;SDS011;69531;37.974;23.708;2023-04-24T05:24:37;16.10;;;9.60;;
80213;SDS011;69531;37.974;23.708;2023-04-24T05:27:03;15.98;;;9.68;;
80213;SDS011;69531;37.974;23.708;2023-04-24T05:29:32;18.05;;;9.27;;
80213;SDS011;69531;37.974;23.708;2023-04-24T05:31:58;19.10;;;8.85;;
80213;SDS011;69531;37.974;23.708;2023-04-24T05:34:25;14.57;;;8.68;;
80213;SDS011;69531;37.974;23.708;2023-04-24T05:36:51;16.70;;;8.32;;
80213;SDS011;69531;37.974;23.708;2023-04-24T05:39:17;17.80;;;7.75;;
80213;SDS011;69531;37.974;23.708;2023-04-24T05:41:42;11.30;;;7.90;;
80213;SDS011;69531;37.974;23.708;2023-04-24T05:44:08;13.70;;;7.72;;
80213;SDS011;69531;37.974;23.708;2023-04-24T05:46:34;16.08;;;7.80;;
80213;SDS011;69531;37.974;23.708;2023-04-24T05:49:00;11.07;;;7.03;;
80213;SDS011;69531;37.974;23.708;2023-04-24T05:51:27;12.27;;;6.72;;
80213;SDS011;69531;37.974;23.708;2023-04-24T05:53:53;14.70;;;7.53;;
80213;SDS011;69531;37.974;23.708;2023-04-24T05:56:18;14.23;;;7.28;;
80213;SDS011;69531;37.974;23.708;2023-04-24T05:58:45;12.20;;;7.32;;
80213;SDS011;69531;37.974;23.708;2023-04-24T06:01:11;11.63;;;7.15;;
80213;SDS011;69531;37.974;23.708;2023-04-24T06:03:39;12.95;;;5.97;;
80213;SDS011;69531;37.974;23.708;2023-04-24T06:06:06;10.05;;;6.07;;
80213;SDS011;69531;37.974;23.708;2023-04-24T06:08:32;9.57;;;6.05;;
80213;SDS011;69531;37.974;23.708;2023-04-24T06:10:57;9.77;;;5.95;;
80213;SDS011;69531;37.974;23.708;2023-04-24T06:13:23;10.10;;;6.15;;
80213;SDS011;69531;37.974;23.708;2023-04-24T06:15:49;10.75;;;5.78;;
80213;SDS011;69531;37.974;23.708;2023-04-24T06:18:15;9.95;;;5.80;;
80213;SDS011;69531;37.974;23.708;2023-04-24T06:20:41;10.02;;;5.68;;
80213;SDS011;69531;37.974;23.708;2023-04-24T06:23:07;8.63;;;5.28;;
80213;SDS011;69531;37.974;23.708;2023-04-24T06:25:33;8.80;;;4.93;;
80213;SDS011;69531;37.974;23.708;2023-04-24T06:27:59;7.95;;;4.95;;
80213;SDS011;69531;37.974;23.708;2023-04-24T06:30:25;9.25;;;4.72;;
80213;SDS011;69531;37.974;23.708;2023-04-24T06:32:52;9.07;;;5.10;;
80213;SDS011;69531;37.974;23.708;2023-04-24T06:35:18;8.00;;;4.47;;
80213;SDS011;69531;37.974;23.708;2023-04-24T06:37:44;7.30;;;4.10;;
80213;SDS011;69531;37.974;23.708;2023-04-24T06:40:11;11.40;;;4.60;;
80213;SDS011;69531;37.974;23.708;2023-04-24T06:42:36;10.40;;;4.63;;
80213;SDS011;69531;37.974;23.708;2023-04-24T06:45:02;8.93;;;4.35;;
80213;SDS011;69531;37.974;23.708;2023-04-24T06:47:29;12.82;;;4.40;;
80213;SDS011;69531;37.974;23.708;2023-04-24T06:49:54;9.27;;;4.90;;
80213;SDS011;69531;37.974;23.708;2023-04-24T06:52:20;9.65;;;3.88;;
80213;SDS011;69531;37.974;23.708;2023-04-24T06:54:46;7.97;;;3.95;;
80213;SDS011;69531;37.974;23.708;2023-04-24T06:57:12;8.60;;;3.67;;
80213;SDS011;69531;37.974;23.708;2023-04-24T06:59:37;8.02;;;3.65;;
80213;SDS011;69531;37.974;23.708;2023-04-24T07:02:03;10.90;;;4.18;;
80213;SDS011;69531;37.974;23.708;2023-04-24T07:04:29;7.05;;;3.50;;
80213;SDS011;69531;37.974;23.708;2023-04-24T07:06:56;4.75;;;3.33;;
80213;SDS011;69531;37.974;23.708;2023-04-24T07:09:23;7.20;;;3.53;;
80213;SDS011;69531;37.974;23.708;2023-04-24T07:11:50;5.40;;;3.17;;
80213;SDS011;69531;37.974;23.708;2023-04-24T07:14:19;8.95;;;3.63;;
80213;SDS011;69531;37.974;23.708;2023-04-24T07:16:45;6.40;;;3.40;;
80213;SDS011;69531;37.974;23.708;2023-04-24T07:19:11;8.45;;;3.30;;
80213;SDS011;69531;37.974;23.708;2023-04-24T07:21:39;6.68;;;3.35;;
80213;SDS011;69531;37.974;23.708;2023-04-24T07:24:09;6.85;;;3.50;;
80213;SDS011;69531;37.974;23.708;2023-04-24T07:26:35;6.97;;;3.60;;
80213;SDS011;69531;37.974;23.708;2023-04-24T07:29:05;5.63;;;3.35;;
80213;SDS011;69531;37.974;23.708;2023-04-24T07:31:31;7.60;;;3.20;;
80213;SDS011;69531;37.974;23.708;2023-04-24T07:33:57;9.20;;;3.70;;
80213;SDS011;69531;37.974;23.708;2023-04-24T07:36:25;5.43;;;3.33;;
80213;SDS011;69531;37.974;23.708;2023-04-24T07:38:51;6.45;;;3.00;;
80213;SDS011;69531;37.974;23.708;2023-04-24T07:41:18;4.75;;;2.83;;
80213;SDS011;69531;37.974;23.708;2023-04-24T07:43:49;6.13;;;2.65;;
80213;SDS011;69531;37.974;23.708;2023-04-24T07:46:15;4.32;;;2.88;;
80213;SDS011;69531;37.974;23.708;2023-04-24T07:48:41;5.60;;;2.60;;
80213;SDS011;69531;37.974;23.708;2023-04-24T07:51:07;3.92;;;2.35;;
80213;SDS011;69531;37.974;23.708;2023-04-24T07:53:35;3.30;;;2.30;;
80213;SDS011;69531;37.974;23.708;2023-04-24T07:56:00;6.82;;;2.80;;
80213;SDS011;69531;37.974;23.708;2023-04-24T07:58:29;5.45;;;2.55;;
80213;SDS011;69531;37.974;23.708;2023-04-24T08:00:55;5.45;;;2.80;;
80213;SDS011;69531;37.974;23.708;2023-04-24T08:03:21;4.95;;;2.50;;
80213;SDS011;69531;37.974;23.708;2023-04-24T08:05:46;5.43;;;2.75;;
80213;SDS011;69531;37.974;23.708;2023-04-24T08:08:12;6.75;;;2.80;;
80213;SDS011;69531;37.974;23.708;2023-04-24T08:10:41;4.35;;;2.55;;
80213;SDS011;69531;37.974;23.708;2023-04-24T08:13:07;4.10;;;2.72;;
80213;SDS011;69531;37.974;23.708;2023-04-24T08:15:33;4.55;;;3.10;;
80213;SDS011;69531;37.974;23.708;2023-04-24T08:17:59;6.22;;;2.70;;
80213;SDS011;69531;37.974;23.708;2023-04-24T08:20:25;4.15;;;2.55;;
80213;SDS011;69531;37.974;23.708;2023-04-24T08:22:51;4.43;;;2.60;;
80213;SDS011;69531;37.974;23.708;2023-04-24T08:25:19;6.40;;;3.13;;
80213;SDS011;69531;37.974;23.708;2023-04-24T08:27:44;6.32;;;2.83;;
80213;SDS011;69531;37.974;23.708;2023-04-24T08:30:10;6.63;;;3.00;;
80213;SDS011;69531;37.974;23.708;2023-04-24T08:32:36;5.88;;;2.95;;
80213;SDS011;69531;37.974;23.708;2023-04-24T08:35:06;6.18;;;2.95;;
80213;SDS011;69531;37.974;23.708;2023-04-24T08:37:40;5.47;;;2.50;;
80213;SDS011;69531;37.974;23.708;2023-04-24T08:40:06;5.95;;;2.63;;
80213;SDS011;69531;37.974;23.708;2023-04-24T08:42:41;5.50;;;2.40;;
80213;SDS011;69531;37.974;23.708;2023-04-24T08:45:11;8.23;;;3.03;;
80213;SDS011;69531;37.974;23.708;2023-04-24T08:47:41;9.82;;;3.20;;
80213;SDS011;69531;37.974;23.708;2023-04-24T08:50:07;9.07;;;2.60;;
80213;SDS011;69531;37.974;23.708;2023-04-24T08:52:34;6.97;;;2.80;;
80213;SDS011;69531;37.974;23.708;2023-04-24T08:55:01;5.50;;;2.85;;
80213;SDS011;69531;37.974;23.708;2023-04-24T08:57:27;7.93;;;3.13;;
80213;SDS011;69531;37.974;23.708;2023-04-24T08:59:54;8.52;;;3.47;;
80213;SDS011;69531;37.974;23.708;2023-04-24T09:02:21;5.45;;;3.03;;
80213;SDS011;69531;37.974;23.708;2023-04-24T09:04:48;7.03;;;2.75;;
80213;SDS011;69531;37.974;23.708;2023-04-24T09:07:15;5.85;;;3.03;;
80213;SDS011;69531;37.974;23.708;2023-04-24T09:09:43;6.22;;;3.00;;
80213;SDS011;69531;37.974;23.708;2023-04-24T09:12:09;5.10;;;3.00;;
80213;SDS011;69531;37.974;23.708;2023-04-24T09:14:35;6.88;;;3.40;;
80213;SDS011;69531;37.974;23.708;2023-04-24T09:17:07;10.27;;;3.20;;
80213;SDS011;69531;37.974;23.708;2023-04-24T09:19:33;5.20;;;2.53;;
80213;SDS011;69531;37.974;23.708;2023-04-24T09:21:59;5.15;;;2.72;;
80213;SDS011;69531;37.974;23.708;2023-04-24T09:24:24;5.90;;;2.70;;
80213;SDS011;69531;37.974;23.708;2023-04-24T09:26:57;4.28;;;2.70;;
80213;SDS011;69531;37.974;23.708;2023-04-24T09:29:24;4.63;;;3.00;;
80213;SDS011;69531;37.974;23.708;2023-04-24T09:31:50;3.97;;;2.55;;
80213;SDS011;69531;37.974;23.708;2023-04-24T09:34:21;5.70;;;2.47;;
80213;SDS011;69531;37.974;23.708;2023-04-24T09:36:48;5.55;;;2.72;;
80213;SDS011;69531;37.974;23.708;2023-04-24T09:39:15;4.05;;;2.53;;
80213;SDS011;69531;37.974;23.708;2023-04-24T09:41:44;4.65;;;2.50;;
80213;SDS011;69531;37.974;23.708;2023-04-24T09:44:26;3.33;;;2.15;;
80213;SDS011;69531;37.974;23.708;2023-04-24T09:46:57;4.07;;;2.60;;
80213;SDS011;69531;37.974;23.708;2023-04-24T09:49:25;3.63;;;2.45;;
80213;SDS011;69531;37.974;23.708;2023-04-24T09:52:05;3.47;;;2.33;;
80213;SDS011;69531;37.974;23.708;2023-04-24T09:57:01;4.63;;;2.45;;
80213;SDS011;69531;37.974;23.708;2023-04-24T09:59:28;6.05;;;2.58;;
80213;SDS011;69531;37.974;23.708;2023-04-24T10:01:54;3.88;;;2.42;;
80213;SDS011;69531;37.974;23.708;2023-04-24T10:04:24;4.93;;;2.40;;
80213;SDS011;69531;37.974;23.708;2023-04-24T10:06:52;4.43;;;2.25;;
80213;SDS011;69531;37.974;23.708;2023-04-24T10:09:21;4.25;;;2.30;;
80213;SDS011;69531;37.974;23.708;2023-04-24T10:11:53;5.28;;;2.60;;
80213;SDS011;69531;37.974;23.708;2023-04-24T10:14:21;3.85;;;2.45;;
80213;SDS011;69531;37.974;23.708;2023-04-24T10:16:50;7.20;;;2.60;;
80213;SDS011;69531;37.974;23.708;2023-04-24T10:19:19;7.10;;;2.38;;
80213;SDS011;69531;37.974;23.708;2023-04-24T10:21:48;6.57;;;2.40;;
80213;SDS011;69531;37.974;23.708;2023-04-24T10:24:15;3.77;;;2.50;;
80213;SDS011;69531;37.974;23.708;2023-04-24T10:26:43;5.70;;;2.70;;
80213;SDS011;69531;37.974;23.708;2023-04-24T10:29:22;4.53;;;2.60;;
80213;SDS011;69531;37.974;23.708;2023-04-24T10:31:56;3.83;;;2.40;;
80213;SDS011;69531;37.974;23.708;2023-04-24T10:34:22;4.50;;;2.90;;
80213;SDS011;69531;37.974;23.708;2023-04-24T10:36:51;4.20;;;2.40;;
80213;SDS011;69531;37.974;23.708;2023-04-24T10:39:20;5.10;;;2.83;;
80213;SDS011;69531;37.974;23.708;2023-04-24T10:41:48;3.83;;;2.83;;
80213;SDS011;69531;37.974;23.708;2023-04-24T10:44:15;3.47;;;2.50;;
80213;SDS011;69531;37.974;23.708;2023-04-24T10:46:44;4.97;;;2.42;;
80213;SDS011;69531;37.974;23.708;2023-04-24T10:49:14;3.90;;;2.60;;
80213;SDS011;69531;37.974;23.708;2023-04-24T10:59:44;5.95;;;2.55;;
80213;SDS011;69531;37.974;23.708;2023-04-24T11:02:10;4.38;;;2.60;;
80213;SDS011;69531;37.974;23.708;2023-04-24T11:07:08;5.18;;;2.67;;
80213;SDS011;69531;37.974;23.708;2023-04-24T11:09:35;7.05;;;2.78;;
80213;SDS011;69531;37.974;23.708;2023-04-24T11:12:08;5.95;;;2.75;;
80213;SDS011;69531;37.974;23.708;2023-04-24T11:17:28;5.85;;;3.00;;
80213;SDS011;69531;37.974;23.708;2023-04-24T11:22:54;4.43;;;2.60;;
80213;SDS011;69531;37.974;23.708;2023-04-24T11:25:20;6.18;;;2.97;;
80213;SDS011;69531;37.974;23.708;2023-04-24T11:27:51;5.60;;;2.95;;
80213;SDS011;69531;37.974;23.708;2023-04-24T11:30:29;5.80;;;2.78;;
80213;SDS011;69531;37.974;23.708;2023-04-24T11:32:56;5.15;;;2.95;;
80213;SDS011;69531;37.974;23.708;2023-04-24T11:35:28;4.35;;;2.50;;
80213;SDS011;69531;37.974;23.708;2023-04-24T11:37:55;3.70;;;2.53;;
80213;SDS011;69531;37.974;23.708;2023-04-24T11:40:22;4.22;;;2.60;;
80213;SDS011;69531;37.974;23.708;2023-04-24T11:42:50;5.20;;;2.80;;
80213;SDS011;69531;37.974;23.708;2023-04-24T11:45:17;4.70;;;2.47;;
80213;SDS011;69531;37.974;23.708;2023-04-24T11:47:48;3.15;;;2.40;;
80213;SDS011;69531;37.974;23.708;2023-04-24T11:50:15;4.00;;;2.63;;
80213;SDS011;69531;37.974;23.708;2023-04-24T11:52:43;4.93;;;2.83;;
80213;SDS011;69531;37.974;23.708;2023-04-24T11:57:40;5.97;;;3.20;;
80213;SDS011;69531;37.974;23.708;2023-04-24T12:00:14;6.65;;;3.42;;
80213;SDS011;69531;37.974;23.708;2023-04-24T12:02:48;7.68;;;2.75;;
80213;SDS011;69531;37.974;23.708;2023-04-24T12:05:27;5.05;;;2.85;;
80213;SDS011;69531;37.974;23.708;2023-04-24T12:07:56;6.63;;;2.75;;
80213;SDS011;69531;37.974;23.708;2023-04-24T12:10:22;4.30;;;2.85;;
80213;SDS011;69531;37.974;23.708;2023-04-24T12:12:50;4.50;;;3.05;;
80213;SDS011;69531;37.974;23.708;2023-04-24T12:15:17;6.68;;;2.90;;
80213;SDS011;69531;37.974;23.708;2023-04-24T12:17:44;4.85;;;2.70;;
80213;SDS011;69531;37.974;23.708;2023-04-24T12:20:10;4.05;;;2.72;;
80213;SDS011;69531;37.974;23.708;2023-04-24T12:22:50;4.72;;;2.67;;
80213;SDS011;69531;37.974;23.708;2023-04-24T12:25:22;4.75;;;2.13;;
80213;SDS011;69531;37.974;23.708;2023-04-24T12:28:08;5.00;;;2.50;;
80213;SDS011;69531;37.974;23.708;2023-04-24T12:30:39;4.07;;;2.33;;
80213;SDS011;69531;37.974;23.708;2023-04-24T12:33:09;4.10;;;2.30;;
80213;SDS011;69531;37.974;23.708;2023-04-24T12:35:35;3.55;;;2.30;;
80213;SDS011;69531;37.974;23.708;2023-04-24T12:38:14;4.93;;;2.60;;
80213;SDS011;69531;37.974;23.708;2023-04-24T12:40:41;4.93;;;2.45;;
80213;SDS011;69531;37.974;23.708;2023-04-24T12:43:17;5.10;;;2.70;;
80213;SDS011;69531;37.974;23.708;2023-04-24T12:45:44;3.38;;;2.25;;
80213;SDS011;69531;37.974;23.708;2023-04-24T12:48:11;4.65;;;2.40;;
80213;SDS011;69531;37.974;23.708;2023-04-24T12:50:37;6.55;;;2.17;;
80213;SDS011;69531;37.974;23.708;2023-04-24T12:53:03;3.40;;;2.50;;
80213;SDS011;69531;37.974;23.708;2023-04-24T12:55:29;6.75;;;2.40;;
80213;SDS011;69531;37.974;23.708;2023-04-24T12:57:55;5.60;;;2.90;;
80213;SDS011;69531;37.974;23.708;2023-04-24T13:00:21;6.28;;;2.60;;
80213;SDS011;69531;37.974;23.708;2023-04-24T13:02:47;3.72;;;2.10;;
80213;SDS011;69531;37.974;23.708;2023-04-24T13:05:12;5.25;;;2.70;;
80213;SDS011;69531;37.974;23.708;2023-04-24T13:07:38;4.95;;;2.50;;
80213;SDS011;69531;37.974;23.708;2023-04-24T13:10:05;5.20;;;2.85;;
80213;SDS011;69531;37.974;23.708;2023-04-24T13:12:31;5.47;;;2.45;;
80213;SDS011;69531;37.974;23.708;2023-04-24T13:14:58;4.68;;;2.70;;
80213;SDS011;69531;37.974;23.708;2023-04-24T13:17:24;4.10;;;2.55;;
80213;SDS011;69531;37.974;23.708;2023-04-24T13:19:50;5.80;;;2.40;;
80213;SDS011;69531;37.974;23.708;2023-04-24T13:22:16;5.40;;;2.53;;
80213;SDS011;69531;37.974;23.708;2023-04-24T13:24:44;5.30;;;2.50;;
80213;SDS011;69531;37.974;23.708;2023-04-24T13:27:09;3.25;;;2.00;;
80213;SDS011;69531;37.974;23.708;2023-04-24T13:29:35;4.75;;;2.22;;
80213;SDS011;69531;37.974;23.708;2023-04-24T13:32:01;5.55;;;2.60;;
80213;SDS011;69531;37.974;23.708;2023-04-24T13:34:27;3.13;;;1.92;;
80213;SDS011;69531;37.974;23.708;2023-04-24T13:36:54;5.43;;;2.42;;
80213;SDS011;69531;37.974;23.708;2023-04-24T13:39:21;4.45;;;2.17;;
80213;SDS011;69531;37.974;23.708;2023-04-24T13:41:48;4.47;;;2.35;;
80213;SDS011;69531;37.974;23.708;2023-04-24T13:44:14;6.68;;;2.28;;
80213;SDS011;69531;37.974;23.708;2023-04-24T13:46:40;4.38;;;2.00;;
80213;SDS011;69531;37.974;23.708;2023-04-24T13:49:08;2.45;;;1.85;;
80213;SDS011;69531;37.974;23.708;2023-04-24T13:51:34;3.42;;;1.90;;
80213;SDS011;69531;37.974;23.708;2023-04-24T13:54:00;4.82;;;2.35;;
80213;SDS011;69531;37.974;23.708;2023-04-24T13:56:26;4.35;;;2.35;;
80213;SDS011;69531;37.974;23.708;2023-04-24T13:58:51;3.55;;;1.92;;
80213;SDS011;69531;37.974;23.708;2023-04-24T14:01:19;3.30;;;1.73;;
80213;SDS011;69531;37.974;23.708;2023-04-24T14:03:45;4.00;;;2.03;;
80213;SDS011;69531;37.974;23.708;2023-04-24T14:06:11;3.60;;;2.00;;
80213;SDS011;69531;37.974;23.708;2023-04-24T14:08:37;4.28;;;2.13;;
80213;SDS011;69531;37.974;23.708;2023-04-24T14:11:02;2.78;;;1.83;;
80213;SDS011;69531;37.974;23.708;2023-04-24T14:13:29;2.58;;;1.90;;
80213;SDS011;69531;37.974;23.708;2023-04-24T14:15:54;4.53;;;2.42;;
80213;SDS011;69531;37.974;23.708;2023-04-24T14:18:20;3.58;;;2.13;;
80213;SDS011;69531;37.974;23.708;2023-04-24T14:20:46;4.53;;;2.10;;
80213;SDS011;69531;37.974;23.708;2023-04-24T14:23:13;4.20;;;2.10;;
80213;SDS011;69531;37.974;23.708;2023-04-24T14:25:38;3.85;;;2.25;;
80213;SDS011;69531;37.974;23.708;2023-04-24T14:28:05;3.80;;;2.10;;
80213;SDS011;69531;37.974;23.708;2023-04-24T14:30:32;3.53;;;2.10;;
80213;SDS011;69531;37.974;23.708;2023-04-24T14:32:57;6.55;;;2.10;;
80213;SDS011;69531;37.974;23.708;2023-04-24T14:35:23;5.93;;;2.20;;
80213;SDS011;69531;37.974;23.708;2023-04-24T14:37:49;3.60;;;2.20;;
80213;SDS011;69531;37.974;23.708;2023-04-24T14:40:16;3.88;;;2.20;;
80213;SDS011;69531;37.974;23.708;2023-04-24T14:42:41;4.03;;;2.10;;